sensor_id;sensor_type;location;lat;lon;timestamp;P1;durP1;ratioP1;P2;durP2;ratioP2
19179;SDS011;9722;48.754;8.868;2023-03-23T00:00:22;1.13;;;0.60;;
19179;SDS011;9722;48.754;8.868;2023-03-23T00:03:42;1.20;;;0.70;;
19179;SDS011;9722;48.754;8.868;2023-03-23T00:07:03;0.60;;;0.60;;
19179;SDS011;9722;48.754;8.868;2023-03-23T00:10:24;0.60;;;0.60;;
19179;SDS011;9722;48.754;8.868;2023-03-23T00:13:46;0.70;;;0.70;;
19179;SDS011;9722;48.754;8.868;2023-03-23T00:17:12;0.87;;;0.70;;
19179;SDS011;9722;48.754;8.868;2023-03-23T00:20:34;1.07;;;0.70;;
19179;SDS011;9722;48.754;8.868;2023-03-23T00:24:01;0.73;;;0.73;;
19179;SDS011;9722;48.754;8.868;2023-03-23T00:27:24;1.17;;;0.80;;
19179;SDS011;9722;48.754;8.868;2023-03-23T00:30:44;0.70;;;0.70;;
19179;SDS011;9722;48.754;8.868;2023-03-23T00:34:05;0.93;;;0.70;;
19179;SDS011;9722;48.754;8.868;2023-03-23T00:37:26;0.80;;;0.80;;
19179;SDS011;9722;48.754;8.868;2023-03-23T00:40:46;0.67;;;0.67;;
19179;SDS011;9722;48.754;8.868;2023-03-23T00:44:07;0.80;;;0.80;;
19179;SDS011;9722;48.754;8.868;2023-03-23T00:47:28;1.87;;;1.00;;
19179;SDS011;9722;48.754;8.868;2023-03-23T00:50:50;1.10;;;1.00;;
19179;SDS011;9722;48.754;8.868;2023-03-23T00:54:12;0.63;;;0.63;;
19179;SDS011;9722;48.754;8.868;2023-03-23T00:57:32;0.70;;;0.70;;
19179;SDS011;9722;48.754;8.868;2023-03-23T01:00:53;1.47;;;1.17;;
19179;SDS011;9722;48.754;8.868;2023-03-23T01:04:14;0.83;;;0.80;;
19179;SDS011;9722;48.754;8.868;2023-03-23T01:07:35;1.30;;;1.00;;
19179;SDS011;9722;48.754;8.868;2023-03-23T01:11:01;1.27;;;0.80;;
19179;SDS011;9722;48.754;8.868;2023-03-23T01:14:23;1.37;;;1.27;;
19179;SDS011;9722;48.754;8.868;2023-03-23T01:17:45;1.57;;;1.00;;
19179;SDS011;9722;48.754;8.868;2023-03-23T01:21:10;2.17;;;0.93;;
19179;SDS011;9722;48.754;8.868;2023-03-23T01:24:32;1.43;;;1.00;;
19179;SDS011;9722;48.754;8.868;2023-03-23T01:27:52;0.90;;;0.90;;
19179;SDS011;9722;48.754;8.868;2023-03-23T01:31:15;2.13;;;0.80;;
19179;SDS011;9722;48.754;8.868;2023-03-23T01:34:38;2.67;;;1.07;;
19179;SDS011;9722;48.754;8.868;2023-03-23T01:37:58;1.37;;;1.17;;
19179;SDS011;9722;48.754;8.868;2023-03-23T01:41:19;1.77;;;1.03;;
19179;SDS011;9722;48.754;8.868;2023-03-23T01:48:08;0.80;;;0.80;;
19179;SDS011;9722;48.754;8.868;2023-03-23T01:51:48;1.07;;;1.00;;
19179;SDS011;9722;48.754;8.868;2023-03-23T01:55:12;1.20;;;1.10;;
19179;SDS011;9722;48.754;8.868;2023-03-23T01:58:33;1.10;;;1.03;;
19179;SDS011;9722;48.754;8.868;2023-03-23T02:01:57;1.17;;;0.80;;
19179;SDS011;9722;48.754;8.868;2023-03-23T02:05:28;1.30;;;1.07;;
19179;SDS011;9722;48.754;8.868;2023-03-23T02:08:53;1.23;;;1.03;;
19179;SDS011;9722;48.754;8.868;2023-03-23T02:12:13;1.00;;;0.90;;
19179;SDS011;9722;48.754;8.868;2023-03-23T02:15:45;1.10;;;0.80;;
19179;SDS011;9722;48.754;8.868;2023-03-23T02:30:30;1.23;;;1.10;;
19179;SDS011;9722;48.754;8.868;2023-03-23T02:34:10;1.30;;;1.00;;
19179;SDS011;9722;48.754;8.868;2023-03-23T02:37:45;1.57;;;1.10;;
19179;SDS011;9722;48.754;8.868;2023-03-23T02:41:10;1.10;;;1.10;;
19179;SDS011;9722;48.754;8.868;2023-03-23T02:44:34;1.40;;;1.30;;
19179;SDS011;9722;48.754;8.868;2023-03-23T02:47:59;2.97;;;1.07;;
19179;SDS011;9722;48.754;8.868;2023-03-23T02:51:22;0.93;;;0.93;;
19179;SDS011;9722;48.754;8.868;2023-03-23T02:54:46;1.20;;;1.03;;
19179;SDS011;9722;48.754;8.868;2023-03-23T02:58:09;1.90;;;1.10;;
19179;SDS011;9722;48.754;8.868;2023-03-23T03:04:54;1.50;;;1.40;;
19179;SDS011;9722;48.754;8.868;2023-03-23T03:08:46;1.10;;;1.07;;
19179;SDS011;9722;48.754;8.868;2023-03-23T03:16:01;1.33;;;1.20;;
19179;SDS011;9722;48.754;8.868;2023-03-23T03:19:45;1.47;;;1.27;;
19179;SDS011;9722;48.754;8.868;2023-03-23T03:23:09;1.20;;;1.10;;
19179;SDS011;9722;48.754;8.868;2023-03-23T03:26:32;1.30;;;1.20;;
19179;SDS011;9722;48.754;8.868;2023-03-23T03:29:55;1.80;;;1.07;;
19179;SDS011;9722;48.754;8.868;2023-03-23T03:33:19;1.13;;;1.10;;
19179;SDS011;9722;48.754;8.868;2023-03-23T03:36:40;1.10;;;1.00;;
19179;SDS011;9722;48.754;8.868;2023-03-23T03:40:01;1.17;;;1.00;;
19179;SDS011;9722;48.754;8.868;2023-03-23T03:43:22;2.47;;;1.00;;
19179;SDS011;9722;48.754;8.868;2023-03-23T03:46:43;1.10;;;1.00;;
19179;SDS011;9722;48.754;8.868;2023-03-23T03:50:04;1.07;;;1.00;;
19179;SDS011;9722;48.754;8.868;2023-03-23T03:53:26;2.37;;;1.00;;
19179;SDS011;9722;48.754;8.868;2023-03-23T03:56:47;1.00;;;1.00;;
19179;SDS011;9722;48.754;8.868;2023-03-23T04:00:08;1.40;;;1.30;;
19179;SDS011;9722;48.754;8.868;2023-03-23T04:03:34;1.03;;;1.00;;
19179;SDS011;9722;48.754;8.868;2023-03-23T04:06:54;1.37;;;1.20;;
19179;SDS011;9722;48.754;8.868;2023-03-23T04:10:15;2.00;;;1.27;;
19179;SDS011;9722;48.754;8.868;2023-03-23T04:13:35;1.73;;;1.00;;
19179;SDS011;9722;48.754;8.868;2023-03-23T04:16:56;2.00;;;1.10;;
19179;SDS011;9722;48.754;8.868;2023-03-23T04:20:18;3.63;;;1.27;;
19179;SDS011;9722;48.754;8.868;2023-03-23T04:23:39;1.20;;;1.10;;
19179;SDS011;9722;48.754;8.868;2023-03-23T04:27:00;2.27;;;1.40;;
19179;SDS011;9722;48.754;8.868;2023-03-23T04:30:22;2.93;;;0.90;;
19179;SDS011;9722;48.754;8.868;2023-03-23T04:33:44;1.20;;;1.17;;
19179;SDS011;9722;48.754;8.868;2023-03-23T04:37:06;1.00;;;1.00;;
19179;SDS011;9722;48.754;8.868;2023-03-23T04:40:28;1.20;;;1.10;;
19179;SDS011;9722;48.754;8.868;2023-03-23T04:43:49;1.10;;;1.00;;
19179;SDS011;9722;48.754;8.868;2023-03-23T04:47:12;1.20;;;1.20;;
19179;SDS011;9722;48.754;8.868;2023-03-23T04:50:32;1.10;;;1.00;;
19179;SDS011;9722;48.754;8.868;2023-03-23T04:53:54;0.83;;;0.83;;
19179;SDS011;9722;48.754;8.868;2023-03-23T04:57:16;1.30;;;1.20;;
19179;SDS011;9722;48.754;8.868;2023-03-23T05:00:36;1.97;;;0.93;;
19179;SDS011;9722;48.754;8.868;2023-03-23T05:03:57;1.10;;;1.00;;
19179;SDS011;9722;48.754;8.868;2023-03-23T05:07:17;1.23;;;1.10;;
19179;SDS011;9722;48.754;8.868;2023-03-23T05:10:38;1.37;;;0.93;;
19179;SDS011;9722;48.754;8.868;2023-03-23T05:13:58;1.30;;;1.10;;
19179;SDS011;9722;48.754;8.868;2023-03-23T05:17:19;1.30;;;1.20;;
19179;SDS011;9722;48.754;8.868;2023-03-23T05:20:39;1.23;;;1.13;;
19179;SDS011;9722;48.754;8.868;2023-03-23T05:24:01;1.60;;;1.03;;
19179;SDS011;9722;48.754;8.868;2023-03-23T05:27:22;1.00;;;0.90;;
19179;SDS011;9722;48.754;8.868;2023-03-23T05:30:42;1.20;;;1.10;;
19179;SDS011;9722;48.754;8.868;2023-03-23T05:34:04;1.30;;;1.20;;
19179;SDS011;9722;48.754;8.868;2023-03-23T05:37:25;1.37;;;1.20;;
19179;SDS011;9722;48.754;8.868;2023-03-23T05:40:46;2.73;;;2.47;;
19179;SDS011;9722;48.754;8.868;2023-03-23T05:44:07;1.97;;;1.87;;
19179;SDS011;9722;48.754;8.868;2023-03-23T05:47:27;1.50;;;1.40;;
19179;SDS011;9722;48.754;8.868;2023-03-23T05:50:48;3.20;;;1.80;;
19179;SDS011;9722;48.754;8.868;2023-03-23T05:54:09;1.60;;;1.50;;
19179;SDS011;9722;48.754;8.868;2023-03-23T05:57:30;1.70;;;1.53;;
19179;SDS011;9722;48.754;8.868;2023-03-23T06:00:51;1.40;;;1.30;;
19179;SDS011;9722;48.754;8.868;2023-03-23T06:04:15;2.37;;;1.47;;
19179;SDS011;9722;48.754;8.868;2023-03-23T06:07:36;1.50;;;1.40;;
19179;SDS011;9722;48.754;8.868;2023-03-23T06:11:00;2.30;;;1.33;;
19179;SDS011;9722;48.754;8.868;2023-03-23T06:14:20;1.70;;;1.60;;
19179;SDS011;9722;48.754;8.868;2023-03-23T06:17:41;2.00;;;1.50;;
19179;SDS011;9722;48.754;8.868;2023-03-23T06:21:05;1.40;;;1.10;;
19179;SDS011;9722;48.754;8.868;2023-03-23T06:24:26;1.97;;;1.60;;
19179;SDS011;9722;48.754;8.868;2023-03-23T06:27:46;1.30;;;1.20;;
19179;SDS011;9722;48.754;8.868;2023-03-23T06:31:07;1.60;;;1.30;;
19179;SDS011;9722;48.754;8.868;2023-03-23T06:34:28;1.40;;;1.30;;
19179;SDS011;9722;48.754;8.868;2023-03-23T06:37:49;1.53;;;1.20;;
19179;SDS011;9722;48.754;8.868;2023-03-23T06:41:12;2.33;;;1.10;;
19179;SDS011;9722;48.754;8.868;2023-03-23T06:44:32;1.50;;;1.00;;
19179;SDS011;9722;48.754;8.868;2023-03-23T06:47:53;1.77;;;1.07;;
19179;SDS011;9722;48.754;8.868;2023-03-23T06:51:13;1.53;;;1.27;;
19179;SDS011;9722;48.754;8.868;2023-03-23T06:54:34;4.03;;;1.00;;
19179;SDS011;9722;48.754;8.868;2023-03-23T06:57:54;1.33;;;1.20;;
19179;SDS011;9722;48.754;8.868;2023-03-23T07:01:15;3.43;;;1.43;;
19179;SDS011;9722;48.754;8.868;2023-03-23T07:04:35;3.37;;;1.30;;
19179;SDS011;9722;48.754;8.868;2023-03-23T07:07:57;2.17;;;1.57;;
19179;SDS011;9722;48.754;8.868;2023-03-23T07:11:18;2.20;;;1.50;;
19179;SDS011;9722;48.754;8.868;2023-03-23T07:14:38;1.50;;;1.40;;
19179;SDS011;9722;48.754;8.868;2023-03-23T07:17:59;1.83;;;1.60;;
19179;SDS011;9722;48.754;8.868;2023-03-23T07:21:20;1.80;;;1.70;;
19179;SDS011;9722;48.754;8.868;2023-03-23T07:24:40;3.00;;;1.40;;
19179;SDS011;9722;48.754;8.868;2023-03-23T07:28:02;1.53;;;1.43;;
19179;SDS011;9722;48.754;8.868;2023-03-23T07:31:23;1.57;;;1.47;;
19179;SDS011;9722;48.754;8.868;2023-03-23T07:34:43;1.37;;;1.27;;
19179;SDS011;9722;48.754;8.868;2023-03-23T07:38:04;2.17;;;1.97;;
19179;SDS011;9722;48.754;8.868;2023-03-23T07:41:26;2.60;;;1.57;;
19179;SDS011;9722;48.754;8.868;2023-03-23T07:44:46;1.93;;;1.70;;
19179;SDS011;9722;48.754;8.868;2023-03-23T07:48:07;1.63;;;1.30;;
19179;SDS011;9722;48.754;8.868;2023-03-23T07:51:27;1.73;;;1.40;;
19179;SDS011;9722;48.754;8.868;2023-03-23T07:54:48;1.37;;;1.17;;
19179;SDS011;9722;48.754;8.868;2023-03-23T07:58:08;3.20;;;1.23;;
19179;SDS011;9722;48.754;8.868;2023-03-23T08:01:29;1.17;;;1.00;;
19179;SDS011;9722;48.754;8.868;2023-03-23T08:04:49;1.20;;;1.10;;
19179;SDS011;9722;48.754;8.868;2023-03-23T08:08:10;1.40;;;1.30;;
19179;SDS011;9722;48.754;8.868;2023-03-23T08:11:33;1.30;;;1.17;;
19179;SDS011;9722;48.754;8.868;2023-03-23T08:14:54;1.57;;;1.47;;
19179;SDS011;9722;48.754;8.868;2023-03-23T08:18:15;2.13;;;1.10;;
19179;SDS011;9722;48.754;8.868;2023-03-23T08:21:35;2.13;;;1.20;;
19179;SDS011;9722;48.754;8.868;2023-03-23T08:24:56;1.53;;;1.10;;
19179;SDS011;9722;48.754;8.868;2023-03-23T08:28:17;1.20;;;1.10;;
19179;SDS011;9722;48.754;8.868;2023-03-23T08:31:38;1.17;;;1.10;;
19179;SDS011;9722;48.754;8.868;2023-03-23T08:34:59;1.17;;;1.00;;
19179;SDS011;9722;48.754;8.868;2023-03-23T08:38:19;1.53;;;1.43;;
19179;SDS011;9722;48.754;8.868;2023-03-23T08:41:41;1.50;;;1.40;;
19179;SDS011;9722;48.754;8.868;2023-03-23T08:45:02;1.40;;;1.30;;
19179;SDS011;9722;48.754;8.868;2023-03-23T08:48:24;1.30;;;1.10;;
19179;SDS011;9722;48.754;8.868;2023-03-23T08:51:44;1.30;;;1.20;;
19179;SDS011;9722;48.754;8.868;2023-03-23T08:55:05;1.50;;;1.40;;
19179;SDS011;9722;48.754;8.868;2023-03-23T08:58:28;1.50;;;1.40;;
19179;SDS011;9722;48.754;8.868;2023-03-23T09:01:49;1.37;;;1.27;;
19179;SDS011;9722;48.754;8.868;2023-03-23T09:05:09;1.77;;;1.10;;
19179;SDS011;9722;48.754;8.868;2023-03-23T09:08:31;1.30;;;1.20;;
19179;SDS011;9722;48.754;8.868;2023-03-23T09:11:52;1.10;;;1.00;;
19179;SDS011;9722;48.754;8.868;2023-03-23T09:15:15;1.20;;;1.10;;
19179;SDS011;9722;48.754;8.868;2023-03-23T09:18:36;1.13;;;1.10;;
19179;SDS011;9722;48.754;8.868;2023-03-23T09:21:58;1.33;;;1.10;;
19179;SDS011;9722;48.754;8.868;2023-03-23T09:25:23;1.13;;;1.07;;
19179;SDS011;9722;48.754;8.868;2023-03-23T09:28:46;1.20;;;1.10;;
19179;SDS011;9722;48.754;8.868;2023-03-23T09:32:06;1.93;;;1.33;;
19179;SDS011;9722;48.754;8.868;2023-03-23T09:35:28;1.30;;;1.20;;
19179;SDS011;9722;48.754;8.868;2023-03-23T09:38:51;1.60;;;1.20;;
19179;SDS011;9722;48.754;8.868;2023-03-23T09:42:23;1.83;;;1.47;;
19179;SDS011;9722;48.754;8.868;2023-03-23T09:49:57;1.67;;;1.27;;
19179;SDS011;9722;48.754;8.868;2023-03-23T09:53:28;1.20;;;1.03;;
19179;SDS011;9722;48.754;8.868;2023-03-23T09:56:55;1.40;;;1.23;;
19179;SDS011;9722;48.754;8.868;2023-03-23T10:00:26;2.97;;;0.97;;
19179;SDS011;9722;48.754;8.868;2023-03-23T10:07:48;1.53;;;1.10;;
19179;SDS011;9722;48.754;8.868;2023-03-23T10:11:12;1.13;;;1.03;;
19179;SDS011;9722;48.754;8.868;2023-03-23T10:18:20;1.20;;;0.90;;
19179;SDS011;9722;48.754;8.868;2023-03-23T10:21:47;2.10;;;1.10;;
19179;SDS011;9722;48.754;8.868;2023-03-23T10:28:37;1.50;;;1.40;;
19179;SDS011;9722;48.754;8.868;2023-03-23T10:32:11;1.13;;;1.10;;
19179;SDS011;9722;48.754;8.868;2023-03-23T10:35:37;2.63;;;1.30;;
19179;SDS011;9722;48.754;8.868;2023-03-23T10:42:33;1.00;;;0.97;;
19179;SDS011;9722;48.754;8.868;2023-03-23T10:45:57;1.20;;;0.97;;
19179;SDS011;9722;48.754;8.868;2023-03-23T10:49:26;1.00;;;0.90;;
19179;SDS011;9722;48.754;8.868;2023-03-23T10:52:51;1.10;;;1.00;;
19179;SDS011;9722;48.754;8.868;2023-03-23T10:56:22;1.40;;;1.00;;
19179;SDS011;9722;48.754;8.868;2023-03-23T10:59:44;1.30;;;1.20;;
19179;SDS011;9722;48.754;8.868;2023-03-23T11:03:05;1.10;;;1.00;;
19179;SDS011;9722;48.754;8.868;2023-03-23T11:06:54;1.20;;;1.10;;
19179;SDS011;9722;48.754;8.868;2023-03-23T11:10:24;1.50;;;1.37;;
19179;SDS011;9722;48.754;8.868;2023-03-23T11:13:48;1.53;;;1.43;;
19179;SDS011;9722;48.754;8.868;2023-03-23T11:17:21;2.27;;;1.27;;
19179;SDS011;9722;48.754;8.868;2023-03-23T11:20:44;1.53;;;1.00;;
19179;SDS011;9722;48.754;8.868;2023-03-23T11:24:08;1.40;;;1.30;;
19179;SDS011;9722;48.754;8.868;2023-03-23T11:27:28;2.03;;;1.50;;
19179;SDS011;9722;48.754;8.868;2023-03-23T11:30:49;1.30;;;1.13;;
19179;SDS011;9722;48.754;8.868;2023-03-23T11:34:15;1.03;;;0.93;;
19179;SDS011;9722;48.754;8.868;2023-03-23T11:37:42;1.40;;;1.30;;
19179;SDS011;9722;48.754;8.868;2023-03-23T11:41:08;1.50;;;1.40;;
19179;SDS011;9722;48.754;8.868;2023-03-23T11:44:34;1.30;;;1.20;;
19179;SDS011;9722;48.754;8.868;2023-03-23T11:51:46;1.50;;;1.40;;
19179;SDS011;9722;48.754;8.868;2023-03-23T11:55:18;1.93;;;1.10;;
19179;SDS011;9722;48.754;8.868;2023-03-23T11:58:46;1.23;;;1.07;;
19179;SDS011;9722;48.754;8.868;2023-03-23T12:16:52;1.40;;;1.30;;
19179;SDS011;9722;48.754;8.868;2023-03-23T12:27:17;1.60;;;1.20;;
19179;SDS011;9722;48.754;8.868;2023-03-23T12:34:36;1.27;;;1.17;;
19179;SDS011;9722;48.754;8.868;2023-03-23T12:48:40;1.17;;;1.07;;
19179;SDS011;9722;48.754;8.868;2023-03-23T12:52:08;1.00;;;0.90;;
19179;SDS011;9722;48.754;8.868;2023-03-23T12:55:38;1.40;;;1.23;;
19179;SDS011;9722;48.754;8.868;2023-03-23T12:59:19;1.73;;;1.20;;
19179;SDS011;9722;48.754;8.868;2023-03-23T13:02:42;1.20;;;1.10;;
19179;SDS011;9722;48.754;8.868;2023-03-23T13:06:19;1.30;;;1.20;;
19179;SDS011;9722;48.754;8.868;2023-03-23T13:09:50;1.70;;;1.20;;
19179;SDS011;9722;48.754;8.868;2023-03-23T13:13:23;1.43;;;1.00;;
19179;SDS011;9722;48.754;8.868;2023-03-23T13:16:50;1.70;;;1.30;;
19179;SDS011;9722;48.754;8.868;2023-03-23T13:23:56;1.27;;;1.00;;
19179;SDS011;9722;48.754;8.868;2023-03-23T13:27:28;1.37;;;1.27;;
19179;SDS011;9722;48.754;8.868;2023-03-23T13:30:53;1.50;;;1.40;;
19179;SDS011;9722;48.754;8.868;2023-03-23T13:34:23;2.13;;;1.40;;
19179;SDS011;9722;48.754;8.868;2023-03-23T13:37:46;1.30;;;1.20;;
19179;SDS011;9722;48.754;8.868;2023-03-23T13:41:10;1.40;;;1.30;;
19179;SDS011;9722;48.754;8.868;2023-03-23T13:51:36;1.30;;;1.20;;
19179;SDS011;9722;48.754;8.868;2023-03-23T13:58:43;1.40;;;1.10;;
19179;SDS011;9722;48.754;8.868;2023-03-23T14:02:29;1.30;;;1.20;;
19179;SDS011;9722;48.754;8.868;2023-03-23T14:12:54;1.53;;;1.40;;
19179;SDS011;9722;48.754;8.868;2023-03-23T14:16:19;2.93;;;1.30;;
19179;SDS011;9722;48.754;8.868;2023-03-23T14:19:44;1.50;;;1.40;;
19179;SDS011;9722;48.754;8.868;2023-03-23T14:23:17;1.27;;;1.17;;
19179;SDS011;9722;48.754;8.868;2023-03-23T14:26:39;1.53;;;1.27;;
19179;SDS011;9722;48.754;8.868;2023-03-23T14:30:00;1.83;;;1.07;;
19179;SDS011;9722;48.754;8.868;2023-03-23T14:33:24;1.53;;;1.40;;
19179;SDS011;9722;48.754;8.868;2023-03-23T14:36:47;2.70;;;2.27;;
19179;SDS011;9722;48.754;8.868;2023-03-23T14:40:15;1.57;;;1.20;;
19179;SDS011;9722;48.754;8.868;2023-03-23T14:43:37;2.00;;;1.30;;
19179;SDS011;9722;48.754;8.868;2023-03-23T14:47:00;1.47;;;1.30;;
19179;SDS011;9722;48.754;8.868;2023-03-23T14:54:08;1.50;;;1.40;;
19179;SDS011;9722;48.754;8.868;2023-03-23T14:57:30;1.30;;;1.20;;
19179;SDS011;9722;48.754;8.868;2023-03-23T15:00:59;1.53;;;1.10;;
19179;SDS011;9722;48.754;8.868;2023-03-23T15:04:24;1.87;;;1.30;;
19179;SDS011;9722;48.754;8.868;2023-03-23T15:07:47;1.50;;;1.23;;
19179;SDS011;9722;48.754;8.868;2023-03-23T15:11:20;1.33;;;1.20;;
19179;SDS011;9722;48.754;8.868;2023-03-23T15:14:49;1.27;;;1.17;;
19179;SDS011;9722;48.754;8.868;2023-03-23T15:18:22;3.93;;;1.37;;
19179;SDS011;9722;48.754;8.868;2023-03-23T15:21:51;1.57;;;1.47;;
19179;SDS011;9722;48.754;8.868;2023-03-23T15:25:33;1.90;;;1.60;;
19179;SDS011;9722;48.754;8.868;2023-03-23T15:32:29;3.10;;;2.07;;
19179;SDS011;9722;48.754;8.868;2023-03-23T15:35:56;1.20;;;1.10;;
19179;SDS011;9722;48.754;8.868;2023-03-23T15:39:18;1.83;;;1.00;;
19179;SDS011;9722;48.754;8.868;2023-03-23T15:42:39;1.80;;;1.13;;
19179;SDS011;9722;48.754;8.868;2023-03-23T15:46:03;2.03;;;1.53;;
19179;SDS011;9722;48.754;8.868;2023-03-23T15:49:30;1.23;;;1.17;;
19179;SDS011;9722;48.754;8.868;2023-03-23T15:52:51;1.70;;;1.30;;
19179;SDS011;9722;48.754;8.868;2023-03-23T15:56:13;1.40;;;1.27;;
19179;SDS011;9722;48.754;8.868;2023-03-23T15:59:33;1.47;;;1.33;;
19179;SDS011;9722;48.754;8.868;2023-03-23T16:03:00;2.60;;;1.20;;
19179;SDS011;9722;48.754;8.868;2023-03-23T16:06:25;1.03;;;1.03;;
19179;SDS011;9722;48.754;8.868;2023-03-23T16:09:47;1.40;;;1.00;;
19179;SDS011;9722;48.754;8.868;2023-03-23T16:13:07;1.13;;;1.10;;
19179;SDS011;9722;48.754;8.868;2023-03-23T16:16:29;1.27;;;1.17;;
19179;SDS011;9722;48.754;8.868;2023-03-23T16:19:55;1.27;;;1.17;;
19179;SDS011;9722;48.754;8.868;2023-03-23T16:23:16;1.10;;;1.00;;
19179;SDS011;9722;48.754;8.868;2023-03-23T16:26:37;1.50;;;1.17;;
19179;SDS011;9722;48.754;8.868;2023-03-23T16:29:59;1.43;;;1.33;;
19179;SDS011;9722;48.754;8.868;2023-03-23T16:33:22;1.70;;;1.27;;
19179;SDS011;9722;48.754;8.868;2023-03-23T16:36:42;1.10;;;1.00;;
19179;SDS011;9722;48.754;8.868;2023-03-23T16:40:04;2.20;;;1.33;;
19179;SDS011;9722;48.754;8.868;2023-03-23T16:43:26;1.40;;;1.30;;
19179;SDS011;9722;48.754;8.868;2023-03-23T16:46:46;1.47;;;1.20;;
19179;SDS011;9722;48.754;8.868;2023-03-23T16:50:07;1.23;;;1.13;;
19179;SDS011;9722;48.754;8.868;2023-03-23T16:53:32;2.17;;;1.60;;
19179;SDS011;9722;48.754;8.868;2023-03-23T16:56:53;1.40;;;1.30;;
19179;SDS011;9722;48.754;8.868;2023-03-23T17:00:14;1.80;;;1.70;;
19179;SDS011;9722;48.754;8.868;2023-03-23T17:03:39;2.27;;;2.07;;
19179;SDS011;9722;48.754;8.868;2023-03-23T17:07:01;2.27;;;1.30;;
19179;SDS011;9722;48.754;8.868;2023-03-23T17:10:23;2.10;;;1.53;;
19179;SDS011;9722;48.754;8.868;2023-03-23T17:13:48;1.57;;;1.47;;
19179;SDS011;9722;48.754;8.868;2023-03-23T17:17:09;1.60;;;1.20;;
19179;SDS011;9722;48.754;8.868;2023-03-23T17:20:29;1.43;;;1.33;;
19179;SDS011;9722;48.754;8.868;2023-03-23T17:23:50;1.43;;;1.20;;
19179;SDS011;9722;48.754;8.868;2023-03-23T17:27:11;2.20;;;1.30;;
19179;SDS011;9722;48.754;8.868;2023-03-23T17:30:32;2.13;;;1.20;;
19179;SDS011;9722;48.754;8.868;2023-03-23T17:33:54;1.23;;;1.23;;
19179;SDS011;9722;48.754;8.868;2023-03-23T17:37:16;1.43;;;1.33;;
19179;SDS011;9722;48.754;8.868;2023-03-23T17:40:37;1.93;;;1.27;;
19179;SDS011;9722;48.754;8.868;2023-03-23T17:43:57;1.20;;;1.07;;
19179;SDS011;9722;48.754;8.868;2023-03-23T17:47:18;1.20;;;1.10;;
19179;SDS011;9722;48.754;8.868;2023-03-23T17:50:38;1.50;;;1.40;;
19179;SDS011;9722;48.754;8.868;2023-03-23T17:53:59;1.30;;;1.20;;
19179;SDS011;9722;48.754;8.868;2023-03-23T17:57:20;2.17;;;1.40;;
19179;SDS011;9722;48.754;8.868;2023-03-23T18:00:40;1.30;;;1.20;;
19179;SDS011;9722;48.754;8.868;2023-03-23T18:04:01;1.73;;;1.60;;
19179;SDS011;9722;48.754;8.868;2023-03-23T18:07:23;1.90;;;1.20;;
19179;SDS011;9722;48.754;8.868;2023-03-23T18:10:44;1.53;;;1.20;;
19179;SDS011;9722;48.754;8.868;2023-03-23T18:14:05;1.10;;;1.00;;
19179;SDS011;9722;48.754;8.868;2023-03-23T18:17:26;1.50;;;1.40;;
19179;SDS011;9722;48.754;8.868;2023-03-23T18:20:46;2.07;;;1.37;;
19179;SDS011;9722;48.754;8.868;2023-03-23T18:24:12;1.70;;;1.60;;
19179;SDS011;9722;48.754;8.868;2023-03-23T18:27:33;1.50;;;1.40;;
19179;SDS011;9722;48.754;8.868;2023-03-23T18:30:54;1.00;;;1.00;;
19179;SDS011;9722;48.754;8.868;2023-03-23T18:34:31;1.40;;;1.30;;
19179;SDS011;9722;48.754;8.868;2023-03-23T18:37:52;1.73;;;1.53;;
19179;SDS011;9722;48.754;8.868;2023-03-23T18:41:13;1.50;;;1.40;;
19179;SDS011;9722;48.754;8.868;2023-03-23T18:44:34;1.40;;;1.10;;
19179;SDS011;9722;48.754;8.868;2023-03-23T18:47:55;2.57;;;1.33;;
19179;SDS011;9722;48.754;8.868;2023-03-23T18:51:16;2.20;;;1.37;;
19179;SDS011;9722;48.754;8.868;2023-03-23T18:54:36;1.67;;;1.47;;
19179;SDS011;9722;48.754;8.868;2023-03-23T18:57:59;1.50;;;1.40;;
19179;SDS011;9722;48.754;8.868;2023-03-23T19:01:19;2.70;;;2.37;;
19179;SDS011;9722;48.754;8.868;2023-03-23T19:04:40;3.03;;;2.73;;
19179;SDS011;9722;48.754;8.868;2023-03-23T19:08:01;2.83;;;2.20;;
19179;SDS011;9722;48.754;8.868;2023-03-23T19:11:23;1.70;;;1.60;;
19179;SDS011;9722;48.754;8.868;2023-03-23T19:14:45;2.53;;;2.33;;
19179;SDS011;9722;48.754;8.868;2023-03-23T19:18:05;3.10;;;2.27;;
19179;SDS011;9722;48.754;8.868;2023-03-23T19:21:27;1.87;;;1.67;;
19179;SDS011;9722;48.754;8.868;2023-03-23T19:24:48;1.73;;;1.60;;
19179;SDS011;9722;48.754;8.868;2023-03-23T19:28:08;2.43;;;1.67;;
19179;SDS011;9722;48.754;8.868;2023-03-23T19:31:29;2.20;;;1.30;;
19179;SDS011;9722;48.754;8.868;2023-03-23T19:34:50;1.60;;;1.50;;
19179;SDS011;9722;48.754;8.868;2023-03-23T19:38:11;1.67;;;1.50;;
19179;SDS011;9722;48.754;8.868;2023-03-23T19:41:32;2.73;;;1.40;;
19179;SDS011;9722;48.754;8.868;2023-03-23T19:44:53;1.37;;;1.27;;
19179;SDS011;9722;48.754;8.868;2023-03-23T19:48:14;1.40;;;1.30;;
19179;SDS011;9722;48.754;8.868;2023-03-23T19:51:35;1.70;;;1.60;;
19179;SDS011;9722;48.754;8.868;2023-03-23T19:54:56;1.40;;;1.30;;
19179;SDS011;9722;48.754;8.868;2023-03-23T19:58:16;1.60;;;1.47;;
19179;SDS011;9722;48.754;8.868;2023-03-23T20:01:37;1.77;;;1.67;;
19179;SDS011;9722;48.754;8.868;2023-03-23T20:04:58;1.60;;;1.50;;
19179;SDS011;9722;48.754;8.868;2023-03-23T20:08:18;2.63;;;1.40;;
19179;SDS011;9722;48.754;8.868;2023-03-23T20:11:39;3.20;;;2.10;;
19179;SDS011;9722;48.754;8.868;2023-03-23T20:15:00;1.60;;;1.50;;
19179;SDS011;9722;48.754;8.868;2023-03-23T20:18:21;2.00;;;1.90;;
19179;SDS011;9722;48.754;8.868;2023-03-23T20:21:41;1.87;;;1.77;;
19179;SDS011;9722;48.754;8.868;2023-03-23T20:25:02;2.03;;;1.83;;
19179;SDS011;9722;48.754;8.868;2023-03-23T20:28:23;1.80;;;1.70;;
19179;SDS011;9722;48.754;8.868;2023-03-23T20:31:44;1.90;;;1.80;;
19179;SDS011;9722;48.754;8.868;2023-03-23T20:35:06;2.23;;;1.63;;
19179;SDS011;9722;48.754;8.868;2023-03-23T20:38:29;1.93;;;1.83;;
19179;SDS011;9722;48.754;8.868;2023-03-23T20:41:54;2.10;;;2.00;;
19179;SDS011;9722;48.754;8.868;2023-03-23T20:45:17;3.70;;;2.13;;
19179;SDS011;9722;48.754;8.868;2023-03-23T20:48:39;2.50;;;2.30;;
19179;SDS011;9722;48.754;8.868;2023-03-23T20:52:00;2.33;;;2.07;;
19179;SDS011;9722;48.754;8.868;2023-03-23T20:55:21;3.13;;;1.90;;
19179;SDS011;9722;48.754;8.868;2023-03-23T20:58:41;2.73;;;2.03;;
19179;SDS011;9722;48.754;8.868;2023-03-23T21:02:02;1.97;;;1.83;;
19179;SDS011;9722;48.754;8.868;2023-03-23T21:05:24;2.53;;;1.73;;
19179;SDS011;9722;48.754;8.868;2023-03-23T21:08:45;1.47;;;1.37;;
19179;SDS011;9722;48.754;8.868;2023-03-23T21:12:06;2.53;;;1.60;;
19179;SDS011;9722;48.754;8.868;2023-03-23T21:15:28;1.93;;;1.70;;
19179;SDS011;9722;48.754;8.868;2023-03-23T21:18:49;2.03;;;1.70;;
19179;SDS011;9722;48.754;8.868;2023-03-23T21:22:09;1.80;;;1.70;;
19179;SDS011;9722;48.754;8.868;2023-03-23T21:25:34;2.17;;;1.97;;
19179;SDS011;9722;48.754;8.868;2023-03-23T21:28:56;1.80;;;1.70;;
19179;SDS011;9722;48.754;8.868;2023-03-23T21:32:19;2.47;;;1.90;;
19179;SDS011;9722;48.754;8.868;2023-03-23T21:35:40;1.97;;;1.70;;
19179;SDS011;9722;48.754;8.868;2023-03-23T21:39:00;1.90;;;1.80;;
19179;SDS011;9722;48.754;8.868;2023-03-23T21:42:24;2.00;;;1.80;;
19179;SDS011;9722;48.754;8.868;2023-03-23T21:45:49;1.80;;;1.70;;
19179;SDS011;9722;48.754;8.868;2023-03-23T21:49:14;2.37;;;1.80;;
19179;SDS011;9722;48.754;8.868;2023-03-23T21:52:35;2.63;;;2.03;;
19179;SDS011;9722;48.754;8.868;2023-03-23T21:55:55;2.00;;;1.90;;
19179;SDS011;9722;48.754;8.868;2023-03-23T21:59:16;2.77;;;2.57;;
19179;SDS011;9722;48.754;8.868;2023-03-23T22:02:37;3.00;;;2.70;;
19179;SDS011;9722;48.754;8.868;2023-03-23T22:05:58;5.13;;;2.80;;
19179;SDS011;9722;48.754;8.868;2023-03-23T22:09:25;2.30;;;2.10;;
19179;SDS011;9722;48.754;8.868;2023-03-23T22:12:47;2.80;;;2.20;;
19179;SDS011;9722;48.754;8.868;2023-03-23T22:16:09;2.10;;;1.90;;
19179;SDS011;9722;48.754;8.868;2023-03-23T22:19:33;2.40;;;2.20;;
19179;SDS011;9722;48.754;8.868;2023-03-23T22:22:54;2.20;;;2.00;;
19179;SDS011;9722;48.754;8.868;2023-03-23T22:26:15;2.03;;;1.80;;
19179;SDS011;9722;48.754;8.868;2023-03-23T22:29:36;2.20;;;2.00;;